Airfield :
LOGIN :

Register | Disclaimer

   EN    FR    IT 

 










Legend :    VFR   Marginal VFR   IFR   Intensive IFR   Very Intensive IFR
Visi :
Ceiling :
>= 8 km
>= 3000ft
5 to 8 km
1000 to 3000 ft
1500m to 5 km
500 to 1000 ft
800 to 1500m
200 to 500 ft
< 800m
< 200 ft
Symbols :   Thunderstorms  Fog  Heavy snow  Heavy precipitations  Wind > 20 kt
SIGMETs :     Misc.  Thunderstorms  Icing  Turbulence  Mountain Waves  Volcanic Ashes






- Airport Elevation : 0 ft


ETEB - Ansbach Army Heliport

CURRENT METAR :
  • 200556Z AUTO 00000KT 9999 OVC010 M01/M01 A3003 RMK AO2 SLP203 60000 T10081008 10005 21021 55005 $

EXPIRED METARs :
  • 200546Z AUTO 00000KT 9000 BR OVC010 M01/M01 A3003 RMK AO2 SLP203 $
  • 200531Z AUTO 00000KT 6000 BR OVC009 M01/M01 A3003 RMK AO2 SLP203 $
  • 200516Z AUTO 00000KT 1800 BR OVC009 M01/M01 A3003 RMK AO2 SLP203 $
  • 200458Z AUTO 00000KT 1800 BR OVC009 M01/M01 A3002 RMK AO2 VIS 1400V3200 SLP200 $
  • 200451Z AUTO 00000KT 1600 BR OVC009 M01/M01 A3002 RMK AO2 VIS 1600V5000 FZDZE00FZDZB03E19 SLP200 RVRNO $
  • 200442Z AUTO 00000KT 5000 BR FEW000 OVC009 M01/M01 A3002 RMK AO2 FZDZE00FZDZB03E19 SLP200 $
  • 200427Z AUTO 00000KT 2000 BR BKN000 OVC009 M01/M01 A3003 RMK AO2 VIS 0800V2000 FZDZE00FZDZB03E19 SLP203 $
  • 200403Z AUTO 00000KT 0600 -FZDZ FZFG VV000 M01/M01 A3003 RMK AO2 FZDZE00FZDZB03 SLP203 RVRNO $
  • 200348Z AUTO 30004KT 0400 -FZDZ FZFG VV000 M01/M01 A3003 RMK AO2 FZDZB0257E03UPB07E24FZDZB31E45FZDZB46 SLP203 RVRNO $
  • 200345Z AUTO 30004KT 0400 FZFG VV000 M01/M01 A3003 RMK AO2 FZDZB0257E03UPB07E24FZDZB31E45 SLP203 RVRNO $
  • 200331Z AUTO 29003KT 0400 -FZDZ FZFG VV001 M01/M01 A3004 RMK AO2 FZDZB0257E03UPB07E24FZDZB31 SLP206 RVRNO $

TAF TAF ETEB
Valid from the 20 at 06:00 until the 21 at 12:00 UTC


200603Z 2006/2112 VRB06KT 8000 BR BKN010 620203 QNH3001INS
TEMPO 2006/2008 4400 BR
BECMG 2008/2009 VRB06KT 8000 BR SCT020 BKN030 620203 QNH2997INS
BECMG 2010/2011 VRB06KT 9999 NSW SCT010 BKN015 620304 QNH2994INS
BECMG 2020/2021 VRB06KT 8000 BR BKN010 620503 QNH2988INS
BECMG 2109/2110 VRB06KT 9999 NSW OVC015 620502 QNH2981INS TX05/2012Z TNM01/2100Z



MET'MAP, your aeronautical weather chart ! - Copyright ORBIFLY December 2007 - Disclaimer

ORBIFLY MET'MAP TEAM :

Programming & Development : Alexandra Zaïnal
Concept & Development : Baudouin d'Aumeries
Co-Development & Prog : Marc-Olivier Méhu
Technical & hardware support : Manuel Goepfert

Contact : metmap@orbifly.com




SOURCES & CREDITS :

   NOAA